Weather


ICAO METAR
KHRT 231556Z AUTO 01008KT 10SM CLR 16/07 A2999 RMK AO2 SLP157 T01610065 $
KAAF KAAF 160153Z AUTO 01003KT 10SM FEW026 FEW120 28/27 A3003 RMK AO2 SLP169 T02830272 $
KABY KABY 160153Z AUTO 00000KT 10SM CLR 25/23 A3008 RMK AO2 SLP182 T02500233
KAIK KAIK 160235Z AUTO 17005KT 10SM SCT046 BKN060 26/21 A3010 RMK AO2
KAMG KAMG 160153Z AUTO 00000KT 10SM FEW065 OVC100 25/23 A3005 RMK AO2 SLP172 T02500228 TSNO
KAYS KAYS 160215Z AUTO 00000KT 10SM BKN065 25/23 A3006 RMK AO2 T02450227
KAZE KAZE 160215Z AUTO 23003KT 10SM CLR 25/23 A3004 RMK AO2 T02500225
KBBP KBBP 160235Z AUTO 16005KT 10SM CLR 26/21 A3005 RMK AO2
KBGE KBGE 160235Z AUTO 00000KT 10SM CLR 25/23 A3005 RMK AO2
KBIJ KBIJ 160235Z AUTO 00000KT 10SM CLR 24/22 A3005 RMK AO2
KBNL KBNL 160235Z AUTO 16004KT 10SM OVC085 27/21 A3006 RMK AO2
KBOW KBOW 160235Z AUTO 05003KT 10SM FEW042 BKN049 BKN075 27/23 A3007 RMK AO2 LTG DSNT S
KBQK KBQK 160235Z AUTO 00000KT 10SM SCT023 SCT028 BKN120 25/23 A3007 RMK AO2
KCAE KCAE 160156Z 00000KT 10SM FEW050 SCT065 BKN085 30/22 A3002 RMK AO2 SLP161 T03000217 $
KCDN KCDN 160235Z AUTO 21003KT 10SM OVC055 28/20 A3006 RMK AO2
KCEW KCEW 160153Z AUTO 11003KT 10SM CLR 24/23 A3006 RMK AO2 SLP174 T02390228
KCHS KCHS 160156Z 20005KT 10SM SCT100 26/21 A3005 RMK AO2 SLP176 T02610206
KCKF KCKF 160235Z AUTO 21004KT 10SM SCT050 25/24 A3007 RMK AO2 T02500235
KCOF KCOF 160156Z AUTO 16012KT 10SM CLR 29/26 A3003 RMK AO2 SLP173 T02890257 $
KCPC KCPC 160210Z AUTO 18004KT 10SM CLR 25/21 A3005 RMK AO2 T02500205
KCRE KCRE 160153Z AUTO 17005KT 10SM FEW019 27/23 A3005 RMK AO1 SLP176 T02670228
KCRG KCRG 160153Z 00000KT 10SM CLR 26/24 A3005 RMK AO2 SLP174 T02610244 $
KCTY KCTY 160235Z AUTO 00000KT 10SM CLR 26/ A3006 RMK AO2 T0261////
KCUB KCUB 160153Z AUTO 00000KT 10SM BKN055 OVC075 30/20 A3003 RMK AO2 SLP166 T03000200
KCWV KCWV 160235Z AUTO 18004KT 10SM SCT044 BKN080 OVC110 27/24 A3007 RMK AO2 T02690241
KCXU KCXU 160235Z AUTO 00000KT 10SM BKN080 24/23 A3006 RMK AO1 T02420228
KDAB KDAB 160153Z 00000KT 9SM FEW250 26/26 A3004 RMK SLP173 T02610261
KDED KDED 160235Z AUTO 00000KT 10SM BKN060 26/24 A3006 RMK AO2 LTG DSNT S
KDHN KDHN 160153Z AUTO 27005KT 10SM CLR 26/23 A3009 RMK AO2 SLP183 T02560233
KDQH KDQH 160235Z AUTO 00000KT 10SM RA SCT075 SCT080 BKN110 23/23 A3007 RMK AO2
KDTS KDTS 160153Z 03007KT 10SM CLR 27/24 A3004 RMK AO2 LTG DSNT E SLP171 T02670239 $
KDYB KDYB 160235Z AUTO 00000KT 10SM OVC100 25/20 A3008 RMK AO1
KECP KECP 160237Z 29005KT 10SM TS CLR 26/23 A3004 RMK AO2 TSB31 T02610233 $
KEDN KEDN 160235Z AUTO 00000KT 10SM BKN110 24/24 A3005 RMK AO2 T02350235
KEGI KEGI 160156Z AUTO 03003KT 10SM CLR 25/23 A3004 RMK AO2 LTG DSNT E-SE SLP172 T02450229 FZRANO $
KEVB KEVB 160147Z 00000KT 10SM SKC 28/25 A3006 RMK LAST
KEVB KEVB 160147Z 00000KT 10SM SKC 28/25 A3006 RMK LAST
KEZM KEZM 160235Z AUTO 00000KT 10SM SCT120 26/21 A3008 RMK AO2 T02550210
KFDW KFDW 160235Z AUTO 14004KT 10SM SCT055 BKN075 BKN090 26/21 A3006 RMK AO1
KFIN KFIN 160235Z AUTO 00000KT 10SM CLR 25/24 A3006 RMK AO2 T02540241
KFLO KFLO 160153Z 17008KT 10SM CLR 27/21 A3004 RMK AO2 SLP170 T02720206
KGGE KGGE 160235Z AUTO 00000KT 10SM CLR 21/21 A3007 RMK AO2
KGIF KGIF 160153Z AUTO 35005KT 10SM BKN050 BKN060 OVC080 27/24 A3006 RMK AO2 LTG DSNT NE AND E SLP178 T02670239
KGNV KGNV 160153Z 00000KT 10SM CLR 27/24 A3007 RMK AO2 SLP180 T02720239
KHEG KHEG 160235Z AUTO 00000KT 7SM FEW033 SCT039 SCT045 25/24 A3008 RMK AO2
KHOE KHOE 160215Z AUTO 28003KT 7SM -RA SCT033 BKN047 OVC080 23/23 A3007 RMK AO2
KHRT KHRT 160156Z 04006KT 10SM BKN250 26/22 A3002 RMK AO2A LTG DSNT SE AND NW SLP167 T02590224 $
KHVS KHVS 160235Z AUTO 17006KT 10SM CLR 26/20 A3006 RMK AO2
KHXD KHXD 160235Z AUTO 00000KT 10SM CLR 26/21 A3007 RMK AO2
KHYW KHYW 160235Z AUTO 00000KT 7SM CLR 21/21 A3007 RMK AO2
KISM KISM 160150Z 16005KT 10SM OVC046 29/23 A3006
KJAX KJAX 160156Z 29004KT 5SM BR FEW150 BKN250 25/25 A3004 RMK AO2 SLP173 T02500250
KJES KJES 160235Z AUTO 00000KT 10SM SCT022 SCT065 BKN110 26/24 A3006 RMK AO2 T02610235
KJKA KJKA 160235Z AUTO 00000KT 10SM CLR 25/22 A3003 RMK AO2 LTG DSNT S T02450219
KJYL KJYL 160235Z AUTO 00000KT 10SM SCT060 BKN085 OVC110 27/23 A3008 RMK AO2 T02700227
KJZI KJZI 152035Z AUTO 11008KT 7SM CLR 30/22 A3004 RMK AO2
KLCQ KLCQ 160235Z AUTO 00000KT 10SM CLR 24/23 A3007 RMK AO2
KLEE KLEE 160153Z AUTO 00000KT 10SM CLR 27/25 A3006 RMK AO2 SLP177 T02670250
KLHW KLHW 160156Z AUTO 19004KT 10SM FEW120 27/23 A3004 RMK AO2 SLP175 T02650231 $
KLRO KLRO 160215Z AUTO 00000KT 10SM CLR 23/22 A3007 RMK AO2
KMAI KMAI 160153Z AUTO 00000KT 10SM CLR 25/25 A3005 RMK AO2 SLP172 T02500250 PNO $
KMCO KMCO 160153Z 19007KT 10SM TS SCT055CB BKN200 29/23 A3004 RMK AO2 LTG DSNT SW TSB28 SLP172 OCNL LTGIC S TS S MOV NE T02890233
KMLB KMLB 160153Z 17005KT 10SM CLR 29/23 A3003 RMK AO2 SLP170 T02940233
KMMT KMMT 160156Z AUTO 16004KT 10SM CLR 26/20 A3004 RMK AO2 SLP173 T02600203 $
KMNI KMNI 160235Z AUTO 00000KT 10SM CLR 23/18 A3007 RMK AO2
KMYR KMYR 160156Z 17006KT 10SM CLR 27/22 A3006 RMK AO2 SLP180 T02670222
KNBC KNBC 160156Z AUTO 00000KT 10SM FEW095 SCT120 28/21 A3005 RMK AO2 SLP177 T02830211
KNDZ KNDZ 160156Z 05006KT 10SM FEW030 SCT080 BKN250 24/23 A3003 RMK SLP152 T02390233
KNIP KNIP 160153Z 00000KT 10SM FEW028 SCT170 BKN250 28/22 A3005 RMK AO2 SLP172 T02830222
KNPA KNPA 160130Z 01003KT 10SM FEW030 SCT090 BKN250 27/22 A3002 RMK LAST T02670217
KNRB KNRB 160152Z AUTO 21004KT 10SM CLR 27/23 A3005 RMK AO2 SLP173 T02720233
KNSE KNSE 160156Z AUTO 10003KT 10SM CLR 23/23 A3003 RMK AO2 SLP152 T02330228 $
KOCF KOCF 160151Z AUTO 36003KT 10SM CLR 24/24 A3006 RMK AO2 SLP180 T02440239 PNO $
KOGB KOGB 160153Z AUTO 18005KT 10SM CLR 27/19 A3005 RMK AO2 SLP173 T02670189
KOMN KOMN 152250Z 08006KT 10SM SKC 31/23 A3001 RMK LAST
KORL KORL 160233Z AUTO 36009KT 10SM TS OVC031 29/24 A3006 RMK AO2 LTG DSNT SW TSB25 T02940244
KOZR KOZR 160156Z AUTO 00000KT 10SM CLR 24/23 A3006 RMK AO2 LTG DSNT S SLP179 T02420233
KPAM KPAM 160156Z AUTO 00000KT 10SM FEW033 BKN220 29/25 A3004 RMK AO2 LTG DSNT NW SLP175 T02890248 $
KPNS KPNS 160153Z 01003KT 10SM CLR 26/22 A3002 RMK AO2 SLP167 T02610217
KRBW KRBW 160235Z AUTO 00000KT 10SM BKN090 25/20 A3008 RMK AO2
KSAV KSAV 160153Z 17003KT 10SM FEW110 27/22 A3006 RMK AO2 SLP177 T02720217 $
KSFB KSFB 160226Z 33006KT 10SM VCTS SCT033 SCT042 28/25 A3005 RMK AO2 LTG DSNT S AND SW T02780250
KSGJ KSGJ 160156Z AUTO 32004KT 10SM CLR 26/23 A3006 RMK AO2 SLP178 T02610233
KSMS KSMS 160235Z AUTO 18005KT 10SM CLR 26/21 A3007 RMK AO2
KSSC KSSC 160156Z AUTO 17007KT 10SM BKN070 28/20 A3002 RMK AO2 SLP165 T02770195 TSNO $
KSSI KSSI 160153Z AUTO 15003KT 10SM FEW024 SCT070 29/23 A3004 RMK AO2 SLP173 T02890233
KSVN KSVN 160156Z AUTO 00000KT 10SM FEW095 27/22 A3003 RMK AO2 SLP172 T02700217 $
KTBR KTBR 160235Z AUTO 00000KT 10SM BKN041 BKN050 OVC085 26/24 A3007 RMK AO2 T02580235
KTIX KTIX 160047Z 00000KT 7SM SCT050 321/23 A3003
KTLH KTLH 160153Z 00000KT 10SM -RA BKN100 BKN250 28/24 A3004 RMK AO2 RAB30 SLP172 P0000 T02780244 $
KTMA KTMA 160235Z AUTO 00000KT 10SM -RA SCT120 A3006 RMK AO2
KTTS KTTS 160156Z AUTO 00000KT 10SM CLR 27/27 A3004 RMK AO2 SLP177 P0080 T02730271 $
KTVI KTVI 160235Z AUTO 00000KT 10SM CLR 25/23 A3007 RMK AO2
KUDG KUDG 160156Z AUTO 17009KT 10SM FEW075 28/21 A3004 RMK AO2 SLP175 T02780211
KVAD KVAD 160213Z AUTO 15006KT 10SM CLR 24/24 A3005 RMK AO2 SLP176 $
KVDI KVDI 160235Z AUTO 17003KT 10SM SCT120 26/23 A3006 RMK AO2
KVLD KVLD 160153Z 00000KT 10SM -RA FEW080 SCT100 BKN120 24/24 A3005 RMK AO2 RAB0056 SLP181 P0003 T02440239
KVPS KVPS 160155Z 01004KT 10SM BKN160 26/22 A3003 RMK AO2A SLP175 T02590224 $
KVQQ KVQQ 160050Z 00000KT 9SM FEW024 26/25 A3003
KXMR KXMR 160156Z AUTO 16007KT 10SM CLR 28/24 A3003 RMK AO2 SLP172 T02820244 $
KXNO KXNO 160156Z AUTO 17004KT 10SM FEW090 27/19 A3005 RMK AO2 SLP175 T02710194 $

Next Generation Radar

This is a composite plot of the radar summary, echo tops, storm movement, TVS and MESO signatures and watch boxes. The radar summary is color coded by precip type. Greens, yellows and reds are rain. Pinks are mixed precipitation (freezing rain, sleet). Blues are snow. NOTE: Radar data is susceptible to a phenomena called anomalous propagation. This generally happens at night and appears as a area of 20 dBZ echos (darkest green) which is centered around each radar site and expands with time. To try and reduce the problem, low echo values near the radar sites have been removed.


GOES 13 Visible Radar

This image is the equivalent of taking a black and white photo of the earth. The bright areas show where the sun is being reflected back into space as a result of clouds or snow cover. Clouds and snow show up white. The thicker the cloud, the brighter the color. Land surfaces show up as gray and ocean surfaces nearly black. The major limitation to visible imagery is that it is only valid during daylight.

GOES 13 Infrared 12 Hour Loop

This type of image shows heat based radiation from the infrared spectrum. In other words, the warmer the surface, the more infrared radiation it emits. For a satellite image, cooler surfaces are bright and warmer surfaces are dark. Since the atmosphere cools as you increase in altitude, clouds would show up as bright areas and land surfaces as dark areas. In addition, low clouds will be more gray and higher clouds will show up more white. Tall thunderstorm clouds will show up as bright white and fog will be hard to discern from land areas. A large advantage of IR is that you can view it 24 hours a day.


Surface Data

This is a composite map contain the following analyses: radar summary (color filled areas), surface data plot (composite station model), frontal locations (in various bold lines) and pressure contours (in thin blue lines).